sensor_id;sensor_type;location;lat;lon;timestamp;temperature;humidity
38500;DHT22;24269;51.894;4.622;2023-10-13T00:01:22;17.40;99.90
38500;DHT22;24269;51.894;4.622;2023-10-13T00:03:49;17.40;99.90
38500;DHT22;24269;51.894;4.622;2023-10-13T00:06:14;17.40;99.90
38500;DHT22;24269;51.894;4.622;2023-10-13T00:08:41;17.40;99.90
38500;DHT22;24269;51.894;4.622;2023-10-13T00:11:12;17.40;99.90
38500;DHT22;24269;51.894;4.622;2023-10-13T00:13:37;17.40;99.90
38500;DHT22;24269;51.894;4.622;2023-10-13T00:16:09;17.40;99.90
38500;DHT22;24269;51.894;4.622;2023-10-13T00:18:35;17.40;99.90
38500;DHT22;24269;51.894;4.622;2023-10-13T00:21:08;17.50;99.90
38500;DHT22;24269;51.894;4.622;2023-10-13T00:23:52;17.40;99.90
38500;DHT22;24269;51.894;4.622;2023-10-13T00:26:19;17.40;99.90
38500;DHT22;24269;51.894;4.622;2023-10-13T00:28:49;17.40;99.90
38500;DHT22;24269;51.894;4.622;2023-10-13T00:31:27;17.40;99.90
38500;DHT22;24269;51.894;4.622;2023-10-13T00:33:59;17.40;99.90
38500;DHT22;24269;51.894;4.622;2023-10-13T00:36:35;17.40;99.90
38500;DHT22;24269;51.894;4.622;2023-10-13T00:39:01;17.40;99.90
38500;DHT22;24269;51.894;4.622;2023-10-13T00:41:29;17.40;99.90
38500;DHT22;24269;51.894;4.622;2023-10-13T00:44:20;17.40;99.90
38500;DHT22;24269;51.894;4.622;2023-10-13T00:47:04;17.40;99.90
38500;DHT22;24269;51.894;4.622;2023-10-13T00:49:33;17.40;99.90
38500;DHT22;24269;51.894;4.622;2023-10-13T00:52:02;17.30;99.90
38500;DHT22;24269;51.894;4.622;2023-10-13T00:54:27;17.30;99.90
38500;DHT22;24269;51.894;4.622;2023-10-13T00:56:53;17.40;99.90
38500;DHT22;24269;51.894;4.622;2023-10-13T00:59:30;17.40;99.90
38500;DHT22;24269;51.894;4.622;2023-10-13T01:02:02;17.30;99.90
38500;DHT22;24269;51.894;4.622;2023-10-13T01:04:46;17.30;99.90
38500;DHT22;24269;51.894;4.622;2023-10-13T01:07:12;17.30;99.90
38500;DHT22;24269;51.894;4.622;2023-10-13T01:09:42;17.30;99.90
38500;DHT22;24269;51.894;4.622;2023-10-13T01:12:08;17.30;99.90
38500;DHT22;24269;51.894;4.622;2023-10-13T01:14:34;17.30;99.90
38500;DHT22;24269;51.894;4.622;2023-10-13T01:17:01;17.30;99.90
38500;DHT22;24269;51.894;4.622;2023-10-13T01:19:27;17.30;99.90
38500;DHT22;24269;51.894;4.622;2023-10-13T01:21:54;17.30;99.90
38500;DHT22;24269;51.894;4.622;2023-10-13T01:24:30;17.20;99.90
38500;DHT22;24269;51.894;4.622;2023-10-13T01:27:06;17.30;99.90
38500;DHT22;24269;51.894;4.622;2023-10-13T01:29:50;17.30;99.90
38500;DHT22;24269;51.894;4.622;2023-10-13T01:32:22;17.20;99.90
38500;DHT22;24269;51.894;4.622;2023-10-13T01:34:48;17.20;99.90
38500;DHT22;24269;51.894;4.622;2023-10-13T01:37:15;17.20;99.90
38500;DHT22;24269;51.894;4.622;2023-10-13T01:39:45;17.20;99.90
38500;DHT22;24269;51.894;4.622;2023-10-13T01:42:13;17.20;99.90
38500;DHT22;24269;51.894;4.622;2023-10-13T01:44:45;17.20;99.90
38500;DHT22;24269;51.894;4.622;2023-10-13T01:47:10;17.20;99.90
38500;DHT22;24269;51.894;4.622;2023-10-13T01:49:38;17.20;99.90
38500;DHT22;24269;51.894;4.622;2023-10-13T01:52:13;17.20;99.90
38500;DHT22;24269;51.894;4.622;2023-10-13T01:54:43;17.20;99.90
38500;DHT22;24269;51.894;4.622;2023-10-13T01:57:10;17.20;99.90
38500;DHT22;24269;51.894;4.622;2023-10-13T01:59:40;17.20;99.90
38500;DHT22;24269;51.894;4.622;2023-10-13T02:02:10;17.20;99.90
38500;DHT22;24269;51.894;4.622;2023-10-13T02:04:39;17.20;99.90
38500;DHT22;24269;51.894;4.622;2023-10-13T02:07:17;17.20;99.90
38500;DHT22;24269;51.894;4.622;2023-10-13T02:09:42;17.20;99.90
38500;DHT22;24269;51.894;4.622;2023-10-13T02:12:09;17.20;99.90
38500;DHT22;24269;51.894;4.622;2023-10-13T02:14:35;17.20;99.90
38500;DHT22;24269;51.894;4.622;2023-10-13T02:17:03;17.20;99.90
38500;DHT22;24269;51.894;4.622;2023-10-13T02:19:39;17.20;99.90
38500;DHT22;24269;51.894;4.622;2023-10-13T02:22:09;17.20;99.90
38500;DHT22;24269;51.894;4.622;2023-10-13T02:24:36;17.20;99.90
38500;DHT22;24269;51.894;4.622;2023-10-13T02:27:06;17.20;99.90
38500;DHT22;24269;51.894;4.622;2023-10-13T02:29:39;17.20;99.90
38500;DHT22;24269;51.894;4.622;2023-10-13T02:32:06;17.20;99.90
38500;DHT22;24269;51.894;4.622;2023-10-13T02:34:47;17.10;99.90
38500;DHT22;24269;51.894;4.622;2023-10-13T02:37:13;17.20;99.90
38500;DHT22;24269;51.894;4.622;2023-10-13T02:39:39;17.10;99.90
38500;DHT22;24269;51.894;4.622;2023-10-13T02:42:08;17.10;99.90
38500;DHT22;24269;51.894;4.622;2023-10-13T02:44:35;17.10;99.90
38500;DHT22;24269;51.894;4.622;2023-10-13T02:47:02;17.10;99.90
38500;DHT22;24269;51.894;4.622;2023-10-13T02:49:39;17.10;99.90
38500;DHT22;24269;51.894;4.622;2023-10-13T02:52:09;17.10;99.90
38500;DHT22;24269;51.894;4.622;2023-10-13T02:54:35;17.20;99.90
38500;DHT22;24269;51.894;4.622;2023-10-13T02:57:08;17.20;99.90
38500;DHT22;24269;51.894;4.622;2023-10-13T02:59:33;17.10;99.90
38500;DHT22;24269;51.894;4.622;2023-10-13T03:02:06;17.10;99.90
38500;DHT22;24269;51.894;4.622;2023-10-13T03:04:51;17.10;99.90
38500;DHT22;24269;51.894;4.622;2023-10-13T03:07:17;17.10;99.90
38500;DHT22;24269;51.894;4.622;2023-10-13T03:09:49;17.00;99.90
38500;DHT22;24269;51.894;4.622;2023-10-13T03:12:20;17.10;99.90
38500;DHT22;24269;51.894;4.622;2023-10-13T03:14:47;17.00;99.90
38500;DHT22;24269;51.894;4.622;2023-10-13T03:17:20;17.10;99.90
38500;DHT22;24269;51.894;4.622;2023-10-13T03:19:59;17.10;99.90
38500;DHT22;24269;51.894;4.622;2023-10-13T03:22:25;17.10;99.90
38500;DHT22;24269;51.894;4.622;2023-10-13T03:25:00;17.00;99.90
38500;DHT22;24269;51.894;4.622;2023-10-13T03:27:30;17.00;99.90
38500;DHT22;24269;51.894;4.622;2023-10-13T03:30:22;17.00;99.90
38500;DHT22;24269;51.894;4.622;2023-10-13T03:32:55;17.00;99.90
38500;DHT22;24269;51.894;4.622;2023-10-13T03:35:22;17.00;99.90
38500;DHT22;24269;51.894;4.622;2023-10-13T03:37:54;17.00;99.90
38500;DHT22;24269;51.894;4.622;2023-10-13T03:40:21;17.00;99.90
38500;DHT22;24269;51.894;4.622;2023-10-13T03:42:51;17.00;99.90
38500;DHT22;24269;51.894;4.622;2023-10-13T03:45:40;17.00;99.90
38500;DHT22;24269;51.894;4.622;2023-10-13T03:48:12;17.00;99.90
38500;DHT22;24269;51.894;4.622;2023-10-13T03:51:07;17.00;99.90
38500;DHT22;24269;51.894;4.622;2023-10-13T03:53:33;17.00;99.90
38500;DHT22;24269;51.894;4.622;2023-10-13T03:56:00;17.00;99.90
38500;DHT22;24269;51.894;4.622;2023-10-13T03:58:38;17.00;99.90
38500;DHT22;24269;51.894;4.622;2023-10-13T04:01:07;17.00;99.90
38500;DHT22;24269;51.894;4.622;2023-10-13T04:03:35;17.00;99.90
38500;DHT22;24269;51.894;4.622;2023-10-13T04:06:05;17.00;99.90
38500;DHT22;24269;51.894;4.622;2023-10-13T04:08:34;17.10;99.90
38500;DHT22;24269;51.894;4.622;2023-10-13T04:11:08;17.10;99.90
38500;DHT22;24269;51.894;4.622;2023-10-13T04:14:10;17.10;99.90
38500;DHT22;24269;51.894;4.622;2023-10-13T04:17:10;17.10;99.90
38500;DHT22;24269;51.894;4.622;2023-10-13T04:19:50;17.10;99.90
38500;DHT22;24269;51.894;4.622;2023-10-13T04:25:19;17.20;99.90
38500;DHT22;24269;51.894;4.622;2023-10-13T04:28:01;17.20;99.90
38500;DHT22;24269;51.894;4.622;2023-10-13T04:30:51;17.20;99.90
38500;DHT22;24269;51.894;4.622;2023-10-13T04:33:27;17.30;99.90
38500;DHT22;24269;51.894;4.622;2023-10-13T04:36:03;17.40;99.90
38500;DHT22;24269;51.894;4.622;2023-10-13T04:38:40;17.40;99.90
38500;DHT22;24269;51.894;4.622;2023-10-13T04:41:31;17.40;99.90
38500;DHT22;24269;51.894;4.622;2023-10-13T04:44:02;17.40;99.90
38500;DHT22;24269;51.894;4.622;2023-10-13T04:46:48;17.50;99.90
38500;DHT22;24269;51.894;4.622;2023-10-13T04:49:14;17.60;99.90
38500;DHT22;24269;51.894;4.622;2023-10-13T04:51:53;17.60;99.90
38500;DHT22;24269;51.894;4.622;2023-10-13T04:54:28;17.60;99.90
38500;DHT22;24269;51.894;4.622;2023-10-13T04:57:17;17.60;99.90
38500;DHT22;24269;51.894;4.622;2023-10-13T05:00:13;17.60;99.90
38500;DHT22;24269;51.894;4.622;2023-10-13T05:02:46;17.60;99.90
38500;DHT22;24269;51.894;4.622;2023-10-13T05:05:30;17.50;99.90
38500;DHT22;24269;51.894;4.622;2023-10-13T05:08:32;17.50;99.90
38500;DHT22;24269;51.894;4.622;2023-10-13T05:11:16;17.50;99.90
38500;DHT22;24269;51.894;4.622;2023-10-13T05:14:00;17.50;99.90
38500;DHT22;24269;51.894;4.622;2023-10-13T05:16:44;17.50;99.90
38500;DHT22;24269;51.894;4.622;2023-10-13T05:19:28;17.50;99.90
38500;DHT22;24269;51.894;4.622;2023-10-13T05:22:12;17.50;99.90
38500;DHT22;24269;51.894;4.622;2023-10-13T05:24:56;17.50;99.90
38500;DHT22;24269;51.894;4.622;2023-10-13T05:27:40;17.40;99.90
38500;DHT22;24269;51.894;4.622;2023-10-13T05:30:25;17.40;99.90
38500;DHT22;24269;51.894;4.622;2023-10-13T05:33:13;17.40;99.90
38500;DHT22;24269;51.894;4.622;2023-10-13T05:35:58;17.40;99.90
38500;DHT22;24269;51.894;4.622;2023-10-13T05:38:42;17.40;99.90
38500;DHT22;24269;51.894;4.622;2023-10-13T05:41:27;17.40;99.90
38500;DHT22;24269;51.894;4.622;2023-10-13T05:44:11;17.40;99.90
38500;DHT22;24269;51.894;4.622;2023-10-13T05:46:56;17.50;99.90
38500;DHT22;24269;51.894;4.622;2023-10-13T05:49:40;17.50;99.90
38500;DHT22;24269;51.894;4.622;2023-10-13T05:52:15;17.50;99.90
38500;DHT22;24269;51.894;4.622;2023-10-13T05:55:16;17.50;99.90
38500;DHT22;24269;51.894;4.622;2023-10-13T05:58:00;17.50;99.90
38500;DHT22;24269;51.894;4.622;2023-10-13T06:00:44;17.60;99.90
38500;DHT22;24269;51.894;4.622;2023-10-13T06:03:28;17.60;99.90
38500;DHT22;24269;51.894;4.622;2023-10-13T06:06:12;17.60;99.90
38500;DHT22;24269;51.894;4.622;2023-10-13T06:09:07;17.60;99.90
38500;DHT22;24269;51.894;4.622;2023-10-13T06:11:51;17.70;99.90
38500;DHT22;24269;51.894;4.622;2023-10-13T06:14:35;17.60;99.90
38500;DHT22;24269;51.894;4.622;2023-10-13T06:17:20;17.70;99.90
38500;DHT22;24269;51.894;4.622;2023-10-13T06:20:05;17.70;99.90
38500;DHT22;24269;51.894;4.622;2023-10-13T06:22:50;17.70;99.90
38500;DHT22;24269;51.894;4.622;2023-10-13T06:25:34;17.80;99.90
38500;DHT22;24269;51.894;4.622;2023-10-13T06:28:18;17.80;99.90
38500;DHT22;24269;51.894;4.622;2023-10-13T06:31:04;17.80;99.90
38500;DHT22;24269;51.894;4.622;2023-10-13T06:33:34;17.80;99.90
38500;DHT22;24269;51.894;4.622;2023-10-13T06:36:04;17.90;99.90
38500;DHT22;24269;51.894;4.622;2023-10-13T06:38:35;17.90;99.90
38500;DHT22;24269;51.894;4.622;2023-10-13T06:41:04;17.90;99.90
38500;DHT22;24269;51.894;4.622;2023-10-13T06:43:34;18.00;99.90
38500;DHT22;24269;51.894;4.622;2023-10-13T06:46:12;18.00;99.90
38500;DHT22;24269;51.894;4.622;2023-10-13T06:48:40;18.00;99.90
38500;DHT22;24269;51.894;4.622;2023-10-13T06:51:07;18.00;99.90
38500;DHT22;24269;51.894;4.622;2023-10-13T06:53:48;18.00;99.90
38500;DHT22;24269;51.894;4.622;2023-10-13T06:56:15;18.00;99.90
38500;DHT22;24269;51.894;4.622;2023-10-13T06:58:47;18.00;99.90
38500;DHT22;24269;51.894;4.622;2023-10-13T07:01:13;18.00;99.90
38500;DHT22;24269;51.894;4.622;2023-10-13T07:03:42;18.00;99.90
38500;DHT22;24269;51.894;4.622;2023-10-13T07:06:08;18.00;99.90
38500;DHT22;24269;51.894;4.622;2023-10-13T07:08:43;18.10;99.90
38500;DHT22;24269;51.894;4.622;2023-10-13T07:11:27;18.10;99.90
38500;DHT22;24269;51.894;4.622;2023-10-13T07:14:03;18.10;99.90
38500;DHT22;24269;51.894;4.622;2023-10-13T07:16:56;18.10;99.90
38500;DHT22;24269;51.894;4.622;2023-10-13T07:19:26;18.20;99.90
38500;DHT22;24269;51.894;4.622;2023-10-13T07:21:58;18.20;99.90
38500;DHT22;24269;51.894;4.622;2023-10-13T07:24:28;18.20;99.90
38500;DHT22;24269;51.894;4.622;2023-10-13T07:26:59;18.20;99.90
38500;DHT22;24269;51.894;4.622;2023-10-13T07:29:30;18.20;99.90
38500;DHT22;24269;51.894;4.622;2023-10-13T07:32:02;18.30;99.90
38500;DHT22;24269;51.894;4.622;2023-10-13T07:34:29;18.30;99.90
38500;DHT22;24269;51.894;4.622;2023-10-13T07:36:58;18.30;99.90
38500;DHT22;24269;51.894;4.622;2023-10-13T07:39:30;18.30;99.90
38500;DHT22;24269;51.894;4.622;2023-10-13T07:42:00;18.40;99.90
38500;DHT22;24269;51.894;4.622;2023-10-13T07:44:34;18.50;99.90
38500;DHT22;24269;51.894;4.622;2023-10-13T07:47:01;18.40;99.90
38500;DHT22;24269;51.894;4.622;2023-10-13T07:49:40;18.50;99.90
38500;DHT22;24269;51.894;4.622;2023-10-13T07:52:10;18.60;99.90
38500;DHT22;24269;51.894;4.622;2023-10-13T07:54:49;18.60;99.90
38500;DHT22;24269;51.894;4.622;2023-10-13T07:57:17;18.70;99.90
38500;DHT22;24269;51.894;4.622;2023-10-13T07:59:44;18.70;99.90
38500;DHT22;24269;51.894;4.622;2023-10-13T08:02:14;18.70;99.90
38500;DHT22;24269;51.894;4.622;2023-10-13T08:05:00;18.80;99.90
38500;DHT22;24269;51.894;4.622;2023-10-13T08:07:26;18.70;99.90
38500;DHT22;24269;51.894;4.622;2023-10-13T08:09:54;18.80;99.90
38500;DHT22;24269;51.894;4.622;2023-10-13T08:12:20;18.80;99.90
38500;DHT22;24269;51.894;4.622;2023-10-13T08:14:48;18.80;99.90
38500;DHT22;24269;51.894;4.622;2023-10-13T08:17:14;18.80;99.90
38500;DHT22;24269;51.894;4.622;2023-10-13T08:19:40;18.80;99.90
38500;DHT22;24269;51.894;4.622;2023-10-13T08:22:08;18.90;99.90
38500;DHT22;24269;51.894;4.622;2023-10-13T08:24:49;18.90;99.90
38500;DHT22;24269;51.894;4.622;2023-10-13T08:27:17;18.90;99.90
38500;DHT22;24269;51.894;4.622;2023-10-13T08:30:03;19.00;99.90
38500;DHT22;24269;51.894;4.622;2023-10-13T08:32:48;19.00;99.90
38500;DHT22;24269;51.894;4.622;2023-10-13T08:35:24;19.00;99.90
38500;DHT22;24269;51.894;4.622;2023-10-13T08:38:00;19.00;99.90
38500;DHT22;24269;51.894;4.622;2023-10-13T08:40:30;19.10;99.90
38500;DHT22;24269;51.894;4.622;2023-10-13T08:43:14;19.10;99.90
38500;DHT22;24269;51.894;4.622;2023-10-13T08:45:41;19.10;99.90
38500;DHT22;24269;51.894;4.622;2023-10-13T08:48:26;19.10;99.90
38500;DHT22;24269;51.894;4.622;2023-10-13T08:50:57;19.10;99.90
38500;DHT22;24269;51.894;4.622;2023-10-13T08:53:30;19.10;99.90
38500;DHT22;24269;51.894;4.622;2023-10-13T08:58:29;19.10;99.90
38500;DHT22;24269;51.894;4.622;2023-10-13T09:01:15;19.10;99.90
38500;DHT22;24269;51.894;4.622;2023-10-13T09:04:08;19.20;99.90
38500;DHT22;24269;51.894;4.622;2023-10-13T09:07:05;19.20;99.90
38500;DHT22;24269;51.894;4.622;2023-10-13T09:09:32;19.20;99.90
38500;DHT22;24269;51.894;4.622;2023-10-13T09:12:24;19.30;99.90
38500;DHT22;24269;51.894;4.622;2023-10-13T09:15:02;19.40;99.90
38500;DHT22;24269;51.894;4.622;2023-10-13T09:17:40;19.50;99.90
38500;DHT22;24269;51.894;4.622;2023-10-13T09:20:09;19.50;99.90
38500;DHT22;24269;51.894;4.622;2023-10-13T09:22:51;19.60;99.90
38500;DHT22;24269;51.894;4.622;2023-10-13T09:25:38;19.60;99.90
38500;DHT22;24269;51.894;4.622;2023-10-13T09:28:17;19.60;99.90
38500;DHT22;24269;51.894;4.622;2023-10-13T09:30:45;19.60;99.90
38500;DHT22;24269;51.894;4.622;2023-10-13T09:33:11;19.70;99.90
38500;DHT22;24269;51.894;4.622;2023-10-13T09:35:43;19.70;99.90
38500;DHT22;24269;51.894;4.622;2023-10-13T09:38:17;19.70;99.90
38500;DHT22;24269;51.894;4.622;2023-10-13T09:40:53;19.70;99.90
38500;DHT22;24269;51.894;4.622;2023-10-13T09:43:27;19.80;99.90
38500;DHT22;24269;51.894;4.622;2023-10-13T09:46:00;19.80;99.90
38500;DHT22;24269;51.894;4.622;2023-10-13T09:48:39;19.80;99.90
38500;DHT22;24269;51.894;4.622;2023-10-13T09:51:24;19.80;99.90
38500;DHT22;24269;51.894;4.622;2023-10-13T09:54:00;19.90;99.90
38500;DHT22;24269;51.894;4.622;2023-10-13T09:56:46;19.90;99.90
38500;DHT22;24269;51.894;4.622;2023-10-13T09:59:40;19.90;99.90
38500;DHT22;24269;51.894;4.622;2023-10-13T10:02:19;20.00;99.90
38500;DHT22;24269;51.894;4.622;2023-10-13T10:04:55;20.00;99.90
38500;DHT22;24269;51.894;4.622;2023-10-13T10:08:07;20.10;99.90
38500;DHT22;24269;51.894;4.622;2023-10-13T10:14:10;20.30;99.90
38500;DHT22;24269;51.894;4.622;2023-10-13T10:17:05;20.40;99.90
38500;DHT22;24269;51.894;4.622;2023-10-13T10:22:13;20.60;99.90
38500;DHT22;24269;51.894;4.622;2023-10-13T10:24:58;20.60;99.90
38500;DHT22;24269;51.894;4.622;2023-10-13T10:27:28;20.70;99.90
38500;DHT22;24269;51.894;4.622;2023-10-13T10:29:57;20.70;99.90
38500;DHT22;24269;51.894;4.622;2023-10-13T10:32:36;20.70;99.90
38500;DHT22;24269;51.894;4.622;2023-10-13T10:35:06;20.60;99.90
38500;DHT22;24269;51.894;4.622;2023-10-13T10:37:41;20.60;99.90
38500;DHT22;24269;51.894;4.622;2023-10-13T10:40:13;20.60;99.90
38500;DHT22;24269;51.894;4.622;2023-10-13T10:42:58;20.60;99.90
38500;DHT22;24269;51.894;4.622;2023-10-13T10:45:27;20.70;99.90
38500;DHT22;24269;51.894;4.622;2023-10-13T10:47:59;20.70;99.90
38500;DHT22;24269;51.894;4.622;2023-10-13T10:50:26;20.80;99.90
38500;DHT22;24269;51.894;4.622;2023-10-13T10:53:06;20.80;99.90
38500;DHT22;24269;51.894;4.622;2023-10-13T10:55:37;20.90;99.90
38500;DHT22;24269;51.894;4.622;2023-10-13T10:58:04;20.90;99.90
38500;DHT22;24269;51.894;4.622;2023-10-13T11:01:03;20.80;99.90
38500;DHT22;24269;51.894;4.622;2023-10-13T11:03:39;20.80;99.90
38500;DHT22;24269;51.894;4.622;2023-10-13T11:06:12;20.80;99.90
38500;DHT22;24269;51.894;4.622;2023-10-13T11:09:09;20.90;99.90
38500;DHT22;24269;51.894;4.622;2023-10-13T11:11:47;21.00;99.90
38500;DHT22;24269;51.894;4.622;2023-10-13T11:14:28;21.00;99.90
38500;DHT22;24269;51.894;4.622;2023-10-13T11:16:59;21.10;99.90
38500;DHT22;24269;51.894;4.622;2023-10-13T11:19:45;21.30;99.90
38500;DHT22;24269;51.894;4.622;2023-10-13T11:22:21;21.20;99.90
38500;DHT22;24269;51.894;4.622;2023-10-13T11:25:08;21.20;99.90
38500;DHT22;24269;51.894;4.622;2023-10-13T11:27:38;21.10;99.90
38500;DHT22;24269;51.894;4.622;2023-10-13T11:30:17;21.00;99.90
38500;DHT22;24269;51.894;4.622;2023-10-13T11:33:01;21.00;99.90
38500;DHT22;24269;51.894;4.622;2023-10-13T11:35:54;21.00;99.90
38500;DHT22;24269;51.894;4.622;2023-10-13T11:38:27;21.00;99.90
38500;DHT22;24269;51.894;4.622;2023-10-13T11:41:00;21.10;99.90
38500;DHT22;24269;51.894;4.622;2023-10-13T11:43:32;21.10;99.90
38500;DHT22;24269;51.894;4.622;2023-10-13T11:46:22;21.10;99.90
38500;DHT22;24269;51.894;4.622;2023-10-13T11:49:01;21.10;99.90
38500;DHT22;24269;51.894;4.622;2023-10-13T11:51:43;21.10;99.90
38500;DHT22;24269;51.894;4.622;2023-10-13T11:54:22;21.10;99.90
38500;DHT22;24269;51.894;4.622;2023-10-13T11:56:49;21.10;99.90
38500;DHT22;24269;51.894;4.622;2023-10-13T11:59:16;21.10;99.90
38500;DHT22;24269;51.894;4.622;2023-10-13T12:01:44;21.10;99.90
38500;DHT22;24269;51.894;4.622;2023-10-13T12:04:28;21.10;99.90
38500;DHT22;24269;51.894;4.622;2023-10-13T12:07:14;21.10;99.90
38500;DHT22;24269;51.894;4.622;2023-10-13T12:09:45;21.20;99.90
38500;DHT22;24269;51.894;4.622;2023-10-13T12:12:17;21.20;99.90
38500;DHT22;24269;51.894;4.622;2023-10-13T12:14:43;21.20;99.90
38500;DHT22;24269;51.894;4.622;2023-10-13T12:17:18;21.20;99.90
38500;DHT22;24269;51.894;4.622;2023-10-13T12:19:52;21.10;99.90
38500;DHT22;24269;51.894;4.622;2023-10-13T12:22:18;21.10;99.90
38500;DHT22;24269;51.894;4.622;2023-10-13T12:24:52;21.00;99.90
38500;DHT22;24269;51.894;4.622;2023-10-13T12:27:21;21.10;99.90
38500;DHT22;24269;51.894;4.622;2023-10-13T12:29:52;21.00;99.90
38500;DHT22;24269;51.894;4.622;2023-10-13T12:32:19;21.00;99.90
38500;DHT22;24269;51.894;4.622;2023-10-13T12:34:56;21.00;99.90
38500;DHT22;24269;51.894;4.622;2023-10-13T12:37:29;21.10;99.90
38500;DHT22;24269;51.894;4.622;2023-10-13T12:40:17;21.10;99.90
38500;DHT22;24269;51.894;4.622;2023-10-13T12:43:02;21.10;99.90
38500;DHT22;24269;51.894;4.622;2023-10-13T12:45:48;21.00;99.90
38500;DHT22;24269;51.894;4.622;2023-10-13T12:48:34;21.00;99.90
38500;DHT22;24269;51.894;4.622;2023-10-13T12:51:19;20.90;99.90
38500;DHT22;24269;51.894;4.622;2023-10-13T12:54:05;20.80;99.90
38500;DHT22;24269;51.894;4.622;2023-10-13T12:56:39;20.80;99.90
38500;DHT22;24269;51.894;4.622;2023-10-13T12:59:10;20.80;99.90
38500;DHT22;24269;51.894;4.622;2023-10-13T13:01:39;20.80;99.90
38500;DHT22;24269;51.894;4.622;2023-10-13T13:04:09;20.70;99.90
38500;DHT22;24269;51.894;4.622;2023-10-13T13:06:43;20.70;99.90
38500;DHT22;24269;51.894;4.622;2023-10-13T13:09:09;20.70;99.90
38500;DHT22;24269;51.894;4.622;2023-10-13T13:11:35;20.70;99.90
38500;DHT22;24269;51.894;4.622;2023-10-13T13:14:06;20.70;99.90
38500;DHT22;24269;51.894;4.622;2023-10-13T13:16:33;20.80;99.90
38500;DHT22;24269;51.894;4.622;2023-10-13T13:18:59;20.80;99.90
38500;DHT22;24269;51.894;4.622;2023-10-13T13:21:28;20.70;99.90
38500;DHT22;24269;51.894;4.622;2023-10-13T13:23:54;20.70;99.90
38500;DHT22;24269;51.894;4.622;2023-10-13T13:26:22;20.70;99.90
38500;DHT22;24269;51.894;4.622;2023-10-13T13:28:49;20.60;99.90
38500;DHT22;24269;51.894;4.622;2023-10-13T13:31:18;20.60;99.90
38500;DHT22;24269;51.894;4.622;2023-10-13T13:33:43;20.50;99.90
38500;DHT22;24269;51.894;4.622;2023-10-13T13:36:10;20.50;99.90
38500;DHT22;24269;51.894;4.622;2023-10-13T13:38:39;20.50;99.90
38500;DHT22;24269;51.894;4.622;2023-10-13T13:41:15;20.40;99.90
38500;DHT22;24269;51.894;4.622;2023-10-13T13:43:49;20.30;99.90
38500;DHT22;24269;51.894;4.622;2023-10-13T13:46:18;20.20;99.90
38500;DHT22;24269;51.894;4.622;2023-10-13T13:48:44;20.10;99.90
38500;DHT22;24269;51.894;4.622;2023-10-13T13:51:13;19.90;99.90
38500;DHT22;24269;51.894;4.622;2023-10-13T13:53:45;19.80;99.90
38500;DHT22;24269;51.894;4.622;2023-10-13T13:56:15;19.70;99.90
38500;DHT22;24269;51.894;4.622;2023-10-13T13:58:49;19.70;99.90
38500;DHT22;24269;51.894;4.622;2023-10-13T14:01:16;19.60;99.90
38500;DHT22;24269;51.894;4.622;2023-10-13T14:03:45;19.60;99.90
38500;DHT22;24269;51.894;4.622;2023-10-13T14:06:15;19.50;99.90
38500;DHT22;24269;51.894;4.622;2023-10-13T14:08:47;19.40;99.90
38500;DHT22;24269;51.894;4.622;2023-10-13T14:11:16;19.30;99.90
38500;DHT22;24269;51.894;4.622;2023-10-13T14:14:15;19.30;99.90
38500;DHT22;24269;51.894;4.622;2023-10-13T14:16:52;19.20;99.90
38500;DHT22;24269;51.894;4.622;2023-10-13T14:19:20;19.20;99.90
38500;DHT22;24269;51.894;4.622;2023-10-13T14:21:56;19.20;99.90
38500;DHT22;24269;51.894;4.622;2023-10-13T14:24:23;19.20;99.90
38500;DHT22;24269;51.894;4.622;2023-10-13T14:27:00;19.10;99.90
38500;DHT22;24269;51.894;4.622;2023-10-13T14:29:38;19.00;99.90
38500;DHT22;24269;51.894;4.622;2023-10-13T14:32:23;19.00;99.90
38500;DHT22;24269;51.894;4.622;2023-10-13T14:34:51;19.00;99.90
38500;DHT22;24269;51.894;4.622;2023-10-13T14:37:23;19.00;99.90
38500;DHT22;24269;51.894;4.622;2023-10-13T14:39:54;18.90;99.90
38500;DHT22;24269;51.894;4.622;2023-10-13T14:42:27;18.90;99.90
38500;DHT22;24269;51.894;4.622;2023-10-13T14:44:53;18.90;99.90
38500;DHT22;24269;51.894;4.622;2023-10-13T14:47:26;18.90;99.90
38500;DHT22;24269;51.894;4.622;2023-10-13T14:49:53;18.80;99.90
38500;DHT22;24269;51.894;4.622;2023-10-13T14:52:27;18.80;99.90
38500;DHT22;24269;51.894;4.622;2023-10-13T14:55:00;18.80;99.90
38500;DHT22;24269;51.894;4.622;2023-10-13T14:57:27;18.80;99.90
38500;DHT22;24269;51.894;4.622;2023-10-13T14:59:53;18.80;99.90
38500;DHT22;24269;51.894;4.622;2023-10-13T15:02:20;18.70;99.90
38500;DHT22;24269;51.894;4.622;2023-10-13T15:04:47;18.70;99.90
38500;DHT22;24269;51.894;4.622;2023-10-13T15:07:17;18.70;99.90
38500;DHT22;24269;51.894;4.622;2023-10-13T15:09:44;18.70;99.90
38500;DHT22;24269;51.894;4.622;2023-10-13T15:12:10;18.70;99.90
38500;DHT22;24269;51.894;4.622;2023-10-13T15:14:38;18.70;99.90
38500;DHT22;24269;51.894;4.622;2023-10-13T15:17:05;18.70;99.90
38500;DHT22;24269;51.894;4.622;2023-10-13T15:19:33;18.60;99.90
38500;DHT22;24269;51.894;4.622;2023-10-13T15:22:04;18.60;99.90
38500;DHT22;24269;51.894;4.622;2023-10-13T15:24:34;18.60;99.90
38500;DHT22;24269;51.894;4.622;2023-10-13T15:27:11;18.60;99.90
38500;DHT22;24269;51.894;4.622;2023-10-13T15:29:39;18.60;99.90
38500;DHT22;24269;51.894;4.622;2023-10-13T15:32:06;18.70;99.90
38500;DHT22;24269;51.894;4.622;2023-10-13T15:34:52;18.70;99.90
38500;DHT22;24269;51.894;4.622;2023-10-13T15:37:19;18.60;99.90
38500;DHT22;24269;51.894;4.622;2023-10-13T15:39:47;18.70;99.90
38500;DHT22;24269;51.894;4.622;2023-10-13T15:42:14;18.70;99.90
38500;DHT22;24269;51.894;4.622;2023-10-13T15:44:40;18.70;99.90
38500;DHT22;24269;51.894;4.622;2023-10-13T15:47:09;18.70;99.90
38500;DHT22;24269;51.894;4.622;2023-10-13T15:49:38;18.70;99.90
38500;DHT22;24269;51.894;4.622;2023-10-13T15:52:08;18.70;99.90
38500;DHT22;24269;51.894;4.622;2023-10-13T15:54:35;18.80;99.90
38500;DHT22;24269;51.894;4.622;2023-10-13T15:57:02;18.80;99.90
38500;DHT22;24269;51.894;4.622;2023-10-13T15:59:32;18.80;99.90
38500;DHT22;24269;51.894;4.622;2023-10-13T16:02:00;18.80;99.90
38500;DHT22;24269;51.894;4.622;2023-10-13T16:04:26;18.80;99.90
38500;DHT22;24269;51.894;4.622;2023-10-13T16:06:52;18.80;99.90
38500;DHT22;24269;51.894;4.622;2023-10-13T16:09:18;18.80;99.90
38500;DHT22;24269;51.894;4.622;2023-10-13T16:11:50;18.80;99.90
38500;DHT22;24269;51.894;4.622;2023-10-13T16:14:17;18.80;99.90
38500;DHT22;24269;51.894;4.622;2023-10-13T16:16:48;18.80;99.90
38500;DHT22;24269;51.894;4.622;2023-10-13T16:19:21;18.80;99.90
38500;DHT22;24269;51.894;4.622;2023-10-13T16:21:48;18.80;99.90
38500;DHT22;24269;51.894;4.622;2023-10-13T16:24:14;18.70;99.90
38500;DHT22;24269;51.894;4.622;2023-10-13T16:26:45;18.70;99.90